sensor_id;sensor_type;location;lat;lon;timestamp;temperature;humidity
11229;DHT22;5671;47.936;8.716;2023-01-24T00:00:54;-0.60;88.00
11229;DHT22;5671;47.936;8.716;2023-01-24T00:03:21;-0.60;88.00
11229;DHT22;5671;47.936;8.716;2023-01-24T00:05:49;-0.60;88.00
11229;DHT22;5671;47.936;8.716;2023-01-24T00:08:17;-0.60;88.20
11229;DHT22;5671;47.936;8.716;2023-01-24T00:10:47;-0.60;88.10
11229;DHT22;5671;47.936;8.716;2023-01-24T00:13:14;-0.60;88.20
11229;DHT22;5671;47.936;8.716;2023-01-24T00:15:42;-0.60;88.20
11229;DHT22;5671;47.936;8.716;2023-01-24T00:18:08;-0.60;88.30
11229;DHT22;5671;47.936;8.716;2023-01-24T00:20:35;-0.60;88.30
11229;DHT22;5671;47.936;8.716;2023-01-24T00:23:02;-0.60;88.50
11229;DHT22;5671;47.936;8.716;2023-01-24T00:25:29;-0.60;88.60
11229;DHT22;5671;47.936;8.716;2023-01-24T00:27:57;-0.60;88.60
11229;DHT22;5671;47.936;8.716;2023-01-24T00:30:24;-0.60;88.60
11229;DHT22;5671;47.936;8.716;2023-01-24T00:32:51;-0.60;88.60
11229;DHT22;5671;47.936;8.716;2023-01-24T00:35:18;-0.70;88.70
11229;DHT22;5671;47.936;8.716;2023-01-24T00:37:45;-0.70;88.70
11229;DHT22;5671;47.936;8.716;2023-01-24T00:40:11;-0.70;88.80
11229;DHT22;5671;47.936;8.716;2023-01-24T00:42:38;-0.70;89.00
11229;DHT22;5671;47.936;8.716;2023-01-24T00:45:07;-0.70;88.80
11229;DHT22;5671;47.936;8.716;2023-01-24T00:47:34;-0.70;88.80
11229;DHT22;5671;47.936;8.716;2023-01-24T00:50:01;-0.70;88.90
11229;DHT22;5671;47.936;8.716;2023-01-24T00:52:28;-0.70;88.90
11229;DHT22;5671;47.936;8.716;2023-01-24T00:54:55;-0.70;89.00
11229;DHT22;5671;47.936;8.716;2023-01-24T00:57:21;-0.70;88.90
11229;DHT22;5671;47.936;8.716;2023-01-24T00:59:49;-0.70;88.90
11229;DHT22;5671;47.936;8.716;2023-01-24T01:02:18;-0.70;88.80
11229;DHT22;5671;47.936;8.716;2023-01-24T01:04:44;-0.70;88.80
11229;DHT22;5671;47.936;8.716;2023-01-24T01:07:11;-0.70;88.80
11229;DHT22;5671;47.936;8.716;2023-01-24T01:09:38;-0.70;88.90
11229;DHT22;5671;47.936;8.716;2023-01-24T01:12:05;-0.70;89.00
11229;DHT22;5671;47.936;8.716;2023-01-24T01:14:32;-0.70;89.10
11229;DHT22;5671;47.936;8.716;2023-01-24T01:16:59;-0.70;89.20
11229;DHT22;5671;47.936;8.716;2023-01-24T01:19:27;-0.70;89.20
11229;DHT22;5671;47.936;8.716;2023-01-24T01:21:54;-0.80;89.30
11229;DHT22;5671;47.936;8.716;2023-01-24T01:24:21;-0.70;89.40
11229;DHT22;5671;47.936;8.716;2023-01-24T01:26:47;-0.70;89.30
11229;DHT22;5671;47.936;8.716;2023-01-24T01:29:14;-0.70;89.40
11229;DHT22;5671;47.936;8.716;2023-01-24T01:31:41;-0.70;89.40
11229;DHT22;5671;47.936;8.716;2023-01-24T01:34:09;-0.70;89.40
11229;DHT22;5671;47.936;8.716;2023-01-24T01:36:37;-0.70;89.40
11229;DHT22;5671;47.936;8.716;2023-01-24T01:39:04;-0.70;89.30
11229;DHT22;5671;47.936;8.716;2023-01-24T01:41:31;-0.80;89.30
11229;DHT22;5671;47.936;8.716;2023-01-24T01:44:20;-0.70;89.30
11229;DHT22;5671;47.936;8.716;2023-01-24T01:47:14;-0.70;89.30
11229;DHT22;5671;47.936;8.716;2023-01-24T01:49:44;-0.70;89.30
11229;DHT22;5671;47.936;8.716;2023-01-24T01:52:13;-0.70;89.40
11229;DHT22;5671;47.936;8.716;2023-01-24T01:54:41;-0.80;89.30
11229;DHT22;5671;47.936;8.716;2023-01-24T01:57:12;-0.70;89.30
11229;DHT22;5671;47.936;8.716;2023-01-24T01:59:43;-0.80;89.20
11229;DHT22;5671;47.936;8.716;2023-01-24T02:02:10;-0.70;89.20
11229;DHT22;5671;47.936;8.716;2023-01-24T02:04:41;-0.80;89.20
11229;DHT22;5671;47.936;8.716;2023-01-24T02:07:14;-0.70;89.10
11229;DHT22;5671;47.936;8.716;2023-01-24T02:09:46;-0.70;89.20
11229;DHT22;5671;47.936;8.716;2023-01-24T02:12:17;-0.80;89.20
11229;DHT22;5671;47.936;8.716;2023-01-24T02:14:45;-0.70;89.20
11229;DHT22;5671;47.936;8.716;2023-01-24T02:17:30;-0.70;89.20
11229;DHT22;5671;47.936;8.716;2023-01-24T02:20:06;-0.80;89.10
11229;DHT22;5671;47.936;8.716;2023-01-24T02:22:44;-0.70;89.20
11229;DHT22;5671;47.936;8.716;2023-01-24T02:25:17;-0.80;89.10
11229;DHT22;5671;47.936;8.716;2023-01-24T02:27:47;-0.80;89.20
11229;DHT22;5671;47.936;8.716;2023-01-24T02:30:13;-0.70;89.20
11229;DHT22;5671;47.936;8.716;2023-01-24T02:32:40;-0.70;89.10
11229;DHT22;5671;47.936;8.716;2023-01-24T02:35:22;-0.70;89.20
11229;DHT22;5671;47.936;8.716;2023-01-24T02:37:52;-0.80;89.10
11229;DHT22;5671;47.936;8.716;2023-01-24T02:40:19;-0.70;89.00
11229;DHT22;5671;47.936;8.716;2023-01-24T02:42:48;-0.80;89.00
11229;DHT22;5671;47.936;8.716;2023-01-24T02:45:20;-0.80;89.00
11229;DHT22;5671;47.936;8.716;2023-01-24T02:47:49;-0.70;89.10
11229;DHT22;5671;47.936;8.716;2023-01-24T02:50:17;-0.80;89.00
11229;DHT22;5671;47.936;8.716;2023-01-24T02:52:45;-0.80;89.00
11229;DHT22;5671;47.936;8.716;2023-01-24T02:55:30;-0.80;89.10
11229;DHT22;5671;47.936;8.716;2023-01-24T02:57:58;-0.80;89.00
11229;DHT22;5671;47.936;8.716;2023-01-24T03:00:33;-0.80;89.00
11229;DHT22;5671;47.936;8.716;2023-01-24T03:03:00;-0.80;89.10
11229;DHT22;5671;47.936;8.716;2023-01-24T03:05:27;-0.80;89.00
11229;DHT22;5671;47.936;8.716;2023-01-24T03:08:06;-0.80;89.00
11229;DHT22;5671;47.936;8.716;2023-01-24T03:10:33;-0.80;89.00
11229;DHT22;5671;47.936;8.716;2023-01-24T03:13:02;-0.80;89.10
11229;DHT22;5671;47.936;8.716;2023-01-24T03:15:46;-0.80;89.00
11229;DHT22;5671;47.936;8.716;2023-01-24T03:18:30;-0.80;89.00
11229;DHT22;5671;47.936;8.716;2023-01-24T03:21:14;-0.80;89.10
11229;DHT22;5671;47.936;8.716;2023-01-24T03:23:59;-0.80;89.10
11229;DHT22;5671;47.936;8.716;2023-01-24T03:26:43;-0.80;89.20
11229;DHT22;5671;47.936;8.716;2023-01-24T03:29:28;-0.80;89.10
11229;DHT22;5671;47.936;8.716;2023-01-24T03:32:13;-0.80;89.10
11229;DHT22;5671;47.936;8.716;2023-01-24T03:34:57;-0.80;89.20
11229;DHT22;5671;47.936;8.716;2023-01-24T03:37:24;-0.80;89.20
11229;DHT22;5671;47.936;8.716;2023-01-24T03:40:12;-0.80;89.40
11229;DHT22;5671;47.936;8.716;2023-01-24T03:42:39;-0.80;89.40
11229;DHT22;5671;47.936;8.716;2023-01-24T03:45:15;-0.80;89.50
11229;DHT22;5671;47.936;8.716;2023-01-24T03:47:44;-0.90;89.60
11229;DHT22;5671;47.936;8.716;2023-01-24T03:50:20;-0.90;89.60
11229;DHT22;5671;47.936;8.716;2023-01-24T03:53:06;-0.90;89.70
11229;DHT22;5671;47.936;8.716;2023-01-24T03:55:33;-0.90;89.70
11229;DHT22;5671;47.936;8.716;2023-01-24T03:58:00;-0.90;89.90
11229;DHT22;5671;47.936;8.716;2023-01-24T04:00:28;-0.90;90.00
11229;DHT22;5671;47.936;8.716;2023-01-24T04:02:55;-0.90;90.10
11229;DHT22;5671;47.936;8.716;2023-01-24T04:05:22;-0.90;90.00
11229;DHT22;5671;47.936;8.716;2023-01-24T04:07:48;-0.90;89.90
11229;DHT22;5671;47.936;8.716;2023-01-24T04:10:16;-0.90;89.90
11229;DHT22;5671;47.936;8.716;2023-01-24T04:12:43;-0.90;89.90
11229;DHT22;5671;47.936;8.716;2023-01-24T04:15:15;-0.90;89.80
11229;DHT22;5671;47.936;8.716;2023-01-24T04:17:44;-0.90;89.90
11229;DHT22;5671;47.936;8.716;2023-01-24T04:20:11;-0.90;89.90
11229;DHT22;5671;47.936;8.716;2023-01-24T04:22:38;-0.90;90.00
11229;DHT22;5671;47.936;8.716;2023-01-24T04:25:06;-0.90;89.90
11229;DHT22;5671;47.936;8.716;2023-01-24T04:27:33;-0.90;89.90
11229;DHT22;5671;47.936;8.716;2023-01-24T04:30:00;-0.90;89.80
11229;DHT22;5671;47.936;8.716;2023-01-24T04:32:28;-0.90;89.90
11229;DHT22;5671;47.936;8.716;2023-01-24T04:34:56;-0.90;89.90
11229;DHT22;5671;47.936;8.716;2023-01-24T04:37:23;-0.90;90.00
11229;DHT22;5671;47.936;8.716;2023-01-24T04:39:50;-0.90;90.00
11229;DHT22;5671;47.936;8.716;2023-01-24T04:42:17;-0.90;90.10
11229;DHT22;5671;47.936;8.716;2023-01-24T04:44:43;-0.90;90.00
11229;DHT22;5671;47.936;8.716;2023-01-24T04:47:10;-0.90;89.90
11229;DHT22;5671;47.936;8.716;2023-01-24T04:49:37;-0.90;89.90
11229;DHT22;5671;47.936;8.716;2023-01-24T04:52:05;-0.90;89.90
11229;DHT22;5671;47.936;8.716;2023-01-24T04:54:32;-0.90;89.90
11229;DHT22;5671;47.936;8.716;2023-01-24T04:56:59;-0.90;90.00
11229;DHT22;5671;47.936;8.716;2023-01-24T04:59:26;-0.90;90.00
11229;DHT22;5671;47.936;8.716;2023-01-24T05:01:53;-0.90;89.90
11229;DHT22;5671;47.936;8.716;2023-01-24T05:04:19;-0.90;89.90
11229;DHT22;5671;47.936;8.716;2023-01-24T05:06:46;-0.90;89.90
11229;DHT22;5671;47.936;8.716;2023-01-24T05:09:15;-0.90;89.90
11229;DHT22;5671;47.936;8.716;2023-01-24T05:11:42;-0.90;89.90
11229;DHT22;5671;47.936;8.716;2023-01-24T05:14:09;-0.90;90.00
11229;DHT22;5671;47.936;8.716;2023-01-24T05:16:36;-0.90;89.90
11229;DHT22;5671;47.936;8.716;2023-01-24T05:19:04;-0.90;89.90
11229;DHT22;5671;47.936;8.716;2023-01-24T05:21:31;-0.90;89.90
11229;DHT22;5671;47.936;8.716;2023-01-24T05:23:58;-0.90;89.70
11229;DHT22;5671;47.936;8.716;2023-01-24T05:26:26;-0.90;89.80
11229;DHT22;5671;47.936;8.716;2023-01-24T05:28:54;-0.90;89.90
11229;DHT22;5671;47.936;8.716;2023-01-24T05:31:21;-0.90;89.80
11229;DHT22;5671;47.936;8.716;2023-01-24T05:33:48;-1.00;89.70
11229;DHT22;5671;47.936;8.716;2023-01-24T05:36:17;-0.90;89.70
11229;DHT22;5671;47.936;8.716;2023-01-24T05:38:44;-0.90;89.80
11229;DHT22;5671;47.936;8.716;2023-01-24T05:41:13;-0.90;89.80
11229;DHT22;5671;47.936;8.716;2023-01-24T05:43:43;-0.90;89.80
11229;DHT22;5671;47.936;8.716;2023-01-24T05:46:12;-1.00;89.80
11229;DHT22;5671;47.936;8.716;2023-01-24T05:48:40;-0.90;89.70
11229;DHT22;5671;47.936;8.716;2023-01-24T05:51:09;-0.90;89.60
11229;DHT22;5671;47.936;8.716;2023-01-24T05:53:57;-0.90;89.50
11229;DHT22;5671;47.936;8.716;2023-01-24T05:56:24;-0.90;89.60
11229;DHT22;5671;47.936;8.716;2023-01-24T05:58:52;-0.90;89.50
11229;DHT22;5671;47.936;8.716;2023-01-24T06:01:20;-0.90;89.50
11229;DHT22;5671;47.936;8.716;2023-01-24T06:03:49;-0.90;89.60
11229;DHT22;5671;47.936;8.716;2023-01-24T06:06:18;-0.90;89.60
11229;DHT22;5671;47.936;8.716;2023-01-24T06:08:46;-0.90;89.60
11229;DHT22;5671;47.936;8.716;2023-01-24T06:11:15;-0.90;89.50
11229;DHT22;5671;47.936;8.716;2023-01-24T06:13:42;-0.90;89.60
11229;DHT22;5671;47.936;8.716;2023-01-24T06:16:12;-1.00;89.70
11229;DHT22;5671;47.936;8.716;2023-01-24T06:18:40;-0.90;89.70
11229;DHT22;5671;47.936;8.716;2023-01-24T06:21:13;-0.90;89.70
11229;DHT22;5671;47.936;8.716;2023-01-24T06:23:42;-0.90;89.70
11229;DHT22;5671;47.936;8.716;2023-01-24T06:26:09;-0.90;89.70
11229;DHT22;5671;47.936;8.716;2023-01-24T06:28:37;-0.90;89.80
11229;DHT22;5671;47.936;8.716;2023-01-24T06:31:12;-0.90;89.80
11229;DHT22;5671;47.936;8.716;2023-01-24T06:33:45;-0.90;89.80
11229;DHT22;5671;47.936;8.716;2023-01-24T06:36:33;-0.90;89.90
11229;DHT22;5671;47.936;8.716;2023-01-24T06:39:03;-0.90;89.80
11229;DHT22;5671;47.936;8.716;2023-01-24T06:41:35;-0.90;89.80
11229;DHT22;5671;47.936;8.716;2023-01-24T06:44:02;-0.90;89.90
11229;DHT22;5671;47.936;8.716;2023-01-24T06:46:30;-0.90;89.80
11229;DHT22;5671;47.936;8.716;2023-01-24T06:48:57;-0.90;89.80
11229;DHT22;5671;47.936;8.716;2023-01-24T06:51:24;-0.90;89.80
11229;DHT22;5671;47.936;8.716;2023-01-24T06:53:51;-0.90;89.90
11229;DHT22;5671;47.936;8.716;2023-01-24T06:56:18;-0.90;89.90
11229;DHT22;5671;47.936;8.716;2023-01-24T06:58:45;-0.90;90.00
11229;DHT22;5671;47.936;8.716;2023-01-24T07:01:12;-0.90;90.10
11229;DHT22;5671;47.936;8.716;2023-01-24T07:03:41;-0.90;90.10
11229;DHT22;5671;47.936;8.716;2023-01-24T07:06:07;-0.90;90.10
11229;DHT22;5671;47.936;8.716;2023-01-24T07:08:34;-0.90;90.00
11229;DHT22;5671;47.936;8.716;2023-01-24T07:11:01;-0.90;90.00
11229;DHT22;5671;47.936;8.716;2023-01-24T07:13:28;-0.90;90.10
11229;DHT22;5671;47.936;8.716;2023-01-24T07:15:54;-0.90;90.20
11229;DHT22;5671;47.936;8.716;2023-01-24T07:18:22;-0.90;90.30
11229;DHT22;5671;47.936;8.716;2023-01-24T07:20:51;-0.90;90.30
11229;DHT22;5671;47.936;8.716;2023-01-24T07:23:21;-0.90;90.30
11229;DHT22;5671;47.936;8.716;2023-01-24T07:25:49;-0.90;90.30
11229;DHT22;5671;47.936;8.716;2023-01-24T07:28:16;-0.90;90.20
11229;DHT22;5671;47.936;8.716;2023-01-24T07:30:43;-0.90;90.20
11229;DHT22;5671;47.936;8.716;2023-01-24T07:33:11;-0.90;90.20
11229;DHT22;5671;47.936;8.716;2023-01-24T07:35:39;-0.90;90.10
11229;DHT22;5671;47.936;8.716;2023-01-24T07:38:07;-0.90;90.10
11229;DHT22;5671;47.936;8.716;2023-01-24T07:40:35;-0.90;90.10
11229;DHT22;5671;47.936;8.716;2023-01-24T07:43:03;-0.90;90.10
11229;DHT22;5671;47.936;8.716;2023-01-24T07:45:30;-0.90;90.20
11229;DHT22;5671;47.936;8.716;2023-01-24T07:47:58;-0.90;90.30
11229;DHT22;5671;47.936;8.716;2023-01-24T07:50:26;-0.90;90.20
11229;DHT22;5671;47.936;8.716;2023-01-24T07:52:53;-0.90;90.20
11229;DHT22;5671;47.936;8.716;2023-01-24T07:55:22;-0.90;90.30
11229;DHT22;5671;47.936;8.716;2023-01-24T07:57:49;-0.90;90.30
11229;DHT22;5671;47.936;8.716;2023-01-24T08:00:17;-0.90;90.40
11229;DHT22;5671;47.936;8.716;2023-01-24T08:02:45;-0.90;90.30
11229;DHT22;5671;47.936;8.716;2023-01-24T08:05:11;-0.80;90.40
11229;DHT22;5671;47.936;8.716;2023-01-24T08:07:38;-0.90;90.40
11229;DHT22;5671;47.936;8.716;2023-01-24T08:10:07;-0.80;90.50
11229;DHT22;5671;47.936;8.716;2023-01-24T08:12:35;-0.80;90.50
11229;DHT22;5671;47.936;8.716;2023-01-24T08:15:02;-0.80;90.50
11229;DHT22;5671;47.936;8.716;2023-01-24T08:17:29;-0.80;90.50
11229;DHT22;5671;47.936;8.716;2023-01-24T08:19:56;-0.80;90.40
11229;DHT22;5671;47.936;8.716;2023-01-24T08:22:23;-0.80;90.40
11229;DHT22;5671;47.936;8.716;2023-01-24T08:24:50;-0.80;90.30
11229;DHT22;5671;47.936;8.716;2023-01-24T08:27:17;-0.80;90.20
11229;DHT22;5671;47.936;8.716;2023-01-24T08:29:45;-0.80;90.20
11229;DHT22;5671;47.936;8.716;2023-01-24T08:32:12;-0.80;90.10
11229;DHT22;5671;47.936;8.716;2023-01-24T08:34:39;-0.80;90.10
11229;DHT22;5671;47.936;8.716;2023-01-24T08:37:05;-0.70;90.10
11229;DHT22;5671;47.936;8.716;2023-01-24T08:39:32;-0.70;90.00
11229;DHT22;5671;47.936;8.716;2023-01-24T08:41:59;-0.70;90.00
11229;DHT22;5671;47.936;8.716;2023-01-24T08:44:26;-0.70;89.90
11229;DHT22;5671;47.936;8.716;2023-01-24T08:46:54;-0.70;89.90
11229;DHT22;5671;47.936;8.716;2023-01-24T08:49:21;-0.70;89.80
11229;DHT22;5671;47.936;8.716;2023-01-24T08:51:48;-0.70;89.70
11229;DHT22;5671;47.936;8.716;2023-01-24T08:54:16;-0.70;89.90
11229;DHT22;5671;47.936;8.716;2023-01-24T08:56:42;-0.70;90.00
11229;DHT22;5671;47.936;8.716;2023-01-24T08:59:09;-0.70;90.00
11229;DHT22;5671;47.936;8.716;2023-01-24T09:01:36;-0.70;90.00
11229;DHT22;5671;47.936;8.716;2023-01-24T09:04:04;-0.60;89.90
11229;DHT22;5671;47.936;8.716;2023-01-24T09:06:31;-0.70;89.70
11229;DHT22;5671;47.936;8.716;2023-01-24T09:08:58;-0.70;89.60
11229;DHT22;5671;47.936;8.716;2023-01-24T09:11:25;-0.60;89.70
11229;DHT22;5671;47.936;8.716;2023-01-24T09:13:52;-0.60;89.70
11229;DHT22;5671;47.936;8.716;2023-01-24T09:16:19;-0.60;89.70
11229;DHT22;5671;47.936;8.716;2023-01-24T09:18:46;-0.60;89.60
11229;DHT22;5671;47.936;8.716;2023-01-24T09:21:16;-0.60;89.60
11229;DHT22;5671;47.936;8.716;2023-01-24T09:23:44;-0.60;89.60
11229;DHT22;5671;47.936;8.716;2023-01-24T09:26:11;-0.60;89.60
11229;DHT22;5671;47.936;8.716;2023-01-24T09:28:39;-0.50;89.60
11229;DHT22;5671;47.936;8.716;2023-01-24T09:31:07;-0.50;89.40
11229;DHT22;5671;47.936;8.716;2023-01-24T09:33:34;-0.50;89.60
11229;DHT22;5671;47.936;8.716;2023-01-24T09:36:02;-0.50;89.60
11229;DHT22;5671;47.936;8.716;2023-01-24T09:38:32;-0.50;89.50
11229;DHT22;5671;47.936;8.716;2023-01-24T09:41:06;-0.50;89.60
11229;DHT22;5671;47.936;8.716;2023-01-24T09:43:49;-0.50;89.40
11229;DHT22;5671;47.936;8.716;2023-01-24T09:46:25;-0.50;89.40
11229;DHT22;5671;47.936;8.716;2023-01-24T09:49:00;-0.50;89.30
11229;DHT22;5671;47.936;8.716;2023-01-24T09:51:31;-0.40;89.20
11229;DHT22;5671;47.936;8.716;2023-01-24T09:54:03;-0.40;89.10
11229;DHT22;5671;47.936;8.716;2023-01-24T09:56:34;-0.40;89.00
11229;DHT22;5671;47.936;8.716;2023-01-24T09:59:11;-0.40;89.10
11229;DHT22;5671;47.936;8.716;2023-01-24T10:01:40;-0.40;89.10
11229;DHT22;5671;47.936;8.716;2023-01-24T10:04:25;-0.40;89.00
11229;DHT22;5671;47.936;8.716;2023-01-24T10:07:15;-0.40;88.90
11229;DHT22;5671;47.936;8.716;2023-01-24T10:09:58;-0.30;89.00
11229;DHT22;5671;47.936;8.716;2023-01-24T10:12:37;-0.30;88.90
11229;DHT22;5671;47.936;8.716;2023-01-24T10:15:17;-0.30;88.90
11229;DHT22;5671;47.936;8.716;2023-01-24T10:18:05;-0.30;88.70
11229;DHT22;5671;47.936;8.716;2023-01-24T10:20:53;-0.30;88.60
11229;DHT22;5671;47.936;8.716;2023-01-24T10:23:25;-0.30;88.50
11229;DHT22;5671;47.936;8.716;2023-01-24T10:25:57;-0.30;88.70
11229;DHT22;5671;47.936;8.716;2023-01-24T10:28:30;-0.30;88.60
11229;DHT22;5671;47.936;8.716;2023-01-24T10:31:03;-0.30;88.50
11229;DHT22;5671;47.936;8.716;2023-01-24T10:33:34;-0.30;88.50
11229;DHT22;5671;47.936;8.716;2023-01-24T10:36:08;-0.30;88.50
11229;DHT22;5671;47.936;8.716;2023-01-24T10:38:37;-0.30;88.40
11229;DHT22;5671;47.936;8.716;2023-01-24T10:41:16;-0.30;88.50
11229;DHT22;5671;47.936;8.716;2023-01-24T10:43:46;-0.30;88.70
11229;DHT22;5671;47.936;8.716;2023-01-24T10:46:42;-0.30;88.60
11229;DHT22;5671;47.936;8.716;2023-01-24T10:49:17;-0.30;88.30
11229;DHT22;5671;47.936;8.716;2023-01-24T10:52:08;-0.30;88.40
11229;DHT22;5671;47.936;8.716;2023-01-24T10:54:45;-0.30;88.20
11229;DHT22;5671;47.936;8.716;2023-01-24T10:57:28;-0.30;88.30
11229;DHT22;5671;47.936;8.716;2023-01-24T11:00:00;-0.30;88.20
11229;DHT22;5671;47.936;8.716;2023-01-24T11:02:30;-0.30;88.30
11229;DHT22;5671;47.936;8.716;2023-01-24T11:05:01;-0.30;88.10
11229;DHT22;5671;47.936;8.716;2023-01-24T11:07:31;-0.30;88.20
11229;DHT22;5671;47.936;8.716;2023-01-24T11:10:02;-0.30;88.20
11229;DHT22;5671;47.936;8.716;2023-01-24T11:12:36;-0.30;88.50
11229;DHT22;5671;47.936;8.716;2023-01-24T11:15:04;-0.30;88.30
11229;DHT22;5671;47.936;8.716;2023-01-24T11:17:34;-0.30;88.40
11229;DHT22;5671;47.936;8.716;2023-01-24T11:20:14;-0.30;88.40
11229;DHT22;5671;47.936;8.716;2023-01-24T11:22:49;-0.30;88.50
11229;DHT22;5671;47.936;8.716;2023-01-24T11:25:17;-0.30;88.20
11229;DHT22;5671;47.936;8.716;2023-01-24T11:27:46;-0.30;88.30
11229;DHT22;5671;47.936;8.716;2023-01-24T11:30:17;-0.30;88.30
11229;DHT22;5671;47.936;8.716;2023-01-24T11:32:55;-0.30;88.40
11229;DHT22;5671;47.936;8.716;2023-01-24T11:35:27;-0.30;88.40
11229;DHT22;5671;47.936;8.716;2023-01-24T11:38:21;-0.30;88.30
11229;DHT22;5671;47.936;8.716;2023-01-24T11:41:02;-0.30;88.20
11229;DHT22;5671;47.936;8.716;2023-01-24T11:43:46;-0.30;88.30
11229;DHT22;5671;47.936;8.716;2023-01-24T11:46:25;-0.30;88.30
11229;DHT22;5671;47.936;8.716;2023-01-24T11:48:57;-0.30;88.30
11229;DHT22;5671;47.936;8.716;2023-01-24T11:51:36;-0.30;88.30
11229;DHT22;5671;47.936;8.716;2023-01-24T11:54:19;-0.30;88.30
11229;DHT22;5671;47.936;8.716;2023-01-24T11:57:01;-0.30;88.50
11229;DHT22;5671;47.936;8.716;2023-01-24T11:59:45;-0.20;88.30
11229;DHT22;5671;47.936;8.716;2023-01-24T12:02:28;-0.30;88.10
11229;DHT22;5671;47.936;8.716;2023-01-24T12:07:56;-0.20;88.30
11229;DHT22;5671;47.936;8.716;2023-01-24T12:10:34;-0.20;88.30
11229;DHT22;5671;47.936;8.716;2023-01-24T12:13:10;-0.20;88.30
11229;DHT22;5671;47.936;8.716;2023-01-24T12:15:54;-0.20;88.40
11229;DHT22;5671;47.936;8.716;2023-01-24T12:18:47;-0.20;88.50
11229;DHT22;5671;47.936;8.716;2023-01-24T12:21:16;-0.20;88.30
11229;DHT22;5671;47.936;8.716;2023-01-24T12:23:49;-0.20;88.30
11229;DHT22;5671;47.936;8.716;2023-01-24T12:26:19;-0.20;88.20
11229;DHT22;5671;47.936;8.716;2023-01-24T12:28:53;-0.20;88.10
11229;DHT22;5671;47.936;8.716;2023-01-24T12:31:30;-0.20;88.30
11229;DHT22;5671;47.936;8.716;2023-01-24T12:34:00;-0.20;88.10
11229;DHT22;5671;47.936;8.716;2023-01-24T12:36:35;-0.20;88.20
11229;DHT22;5671;47.936;8.716;2023-01-24T12:39:11;-0.20;88.50
11229;DHT22;5671;47.936;8.716;2023-01-24T12:41:38;-0.20;88.50
11229;DHT22;5671;47.936;8.716;2023-01-24T12:44:23;-0.20;88.50
11229;DHT22;5671;47.936;8.716;2023-01-24T12:47:04;-0.20;88.40
11229;DHT22;5671;47.936;8.716;2023-01-24T12:49:41;-0.20;88.40
11229;DHT22;5671;47.936;8.716;2023-01-24T12:52:20;-0.20;88.50
11229;DHT22;5671;47.936;8.716;2023-01-24T12:54:52;-0.20;88.50
11229;DHT22;5671;47.936;8.716;2023-01-24T12:57:24;-0.20;88.60
11229;DHT22;5671;47.936;8.716;2023-01-24T12:59:53;-0.20;88.60
11229;DHT22;5671;47.936;8.716;2023-01-24T13:02:41;-0.20;88.60
11229;DHT22;5671;47.936;8.716;2023-01-24T13:05:23;-0.20;88.60
11229;DHT22;5671;47.936;8.716;2023-01-24T13:08:01;-0.20;88.60
11229;DHT22;5671;47.936;8.716;2023-01-24T13:10:37;-0.20;88.50
11229;DHT22;5671;47.936;8.716;2023-01-24T13:13:14;-0.20;88.50
11229;DHT22;5671;47.936;8.716;2023-01-24T13:15:53;-0.20;88.40
11229;DHT22;5671;47.936;8.716;2023-01-24T13:18:38;-0.20;88.50
11229;DHT22;5671;47.936;8.716;2023-01-24T13:21:12;-0.20;88.50
11229;DHT22;5671;47.936;8.716;2023-01-24T13:24:03;-0.20;88.20
11229;DHT22;5671;47.936;8.716;2023-01-24T13:27:03;-0.20;88.30
11229;DHT22;5671;47.936;8.716;2023-01-24T13:29:49;-0.20;88.30
11229;DHT22;5671;47.936;8.716;2023-01-24T13:32:20;-0.30;88.40
11229;DHT22;5671;47.936;8.716;2023-01-24T13:34:51;-0.30;88.50
11229;DHT22;5671;47.936;8.716;2023-01-24T13:37:21;-0.30;88.50
11229;DHT22;5671;47.936;8.716;2023-01-24T13:39:59;-0.20;88.50
11229;DHT22;5671;47.936;8.716;2023-01-24T13:42:33;-0.30;88.50
11229;DHT22;5671;47.936;8.716;2023-01-24T13:45:45;-0.20;88.50
11229;DHT22;5671;47.936;8.716;2023-01-24T13:48:44;-0.20;88.50
11229;DHT22;5671;47.936;8.716;2023-01-24T13:51:43;-0.20;88.50
11229;DHT22;5671;47.936;8.716;2023-01-24T13:54:19;-0.20;88.40
11229;DHT22;5671;47.936;8.716;2023-01-24T13:57:15;-0.20;88.40
11229;DHT22;5671;47.936;8.716;2023-01-24T14:00:02;-0.20;88.40
11229;DHT22;5671;47.936;8.716;2023-01-24T14:02:30;-0.20;88.30
11229;DHT22;5671;47.936;8.716;2023-01-24T14:04:58;-0.20;88.50
11229;DHT22;5671;47.936;8.716;2023-01-24T14:07:29;-0.20;88.50
11229;DHT22;5671;47.936;8.716;2023-01-24T14:10:00;-0.20;88.50
11229;DHT22;5671;47.936;8.716;2023-01-24T14:12:29;-0.20;88.70
11229;DHT22;5671;47.936;8.716;2023-01-24T14:15:04;-0.20;88.70
11229;DHT22;5671;47.936;8.716;2023-01-24T14:17:52;-0.20;88.50
11229;DHT22;5671;47.936;8.716;2023-01-24T14:20:23;-0.20;88.60
11229;DHT22;5671;47.936;8.716;2023-01-24T14:22:57;-0.20;88.50
11229;DHT22;5671;47.936;8.716;2023-01-24T14:25:40;-0.20;88.40
11229;DHT22;5671;47.936;8.716;2023-01-24T14:28:15;-0.20;88.40
11229;DHT22;5671;47.936;8.716;2023-01-24T14:30:45;-0.20;88.40
11229;DHT22;5671;47.936;8.716;2023-01-24T14:33:21;-0.20;88.60
11229;DHT22;5671;47.936;8.716;2023-01-24T14:35:59;-0.20;88.50
11229;DHT22;5671;47.936;8.716;2023-01-24T14:38:28;-0.20;88.60
11229;DHT22;5671;47.936;8.716;2023-01-24T14:40:57;-0.20;88.80
11229;DHT22;5671;47.936;8.716;2023-01-24T14:43:31;-0.20;88.80
11229;DHT22;5671;47.936;8.716;2023-01-24T14:46:09;-0.20;88.80
11229;DHT22;5671;47.936;8.716;2023-01-24T14:48:36;-0.20;88.70
11229;DHT22;5671;47.936;8.716;2023-01-24T14:51:05;-0.20;88.80
11229;DHT22;5671;47.936;8.716;2023-01-24T14:53:34;-0.20;88.80
11229;DHT22;5671;47.936;8.716;2023-01-24T14:56:09;-0.30;88.90
11229;DHT22;5671;47.936;8.716;2023-01-24T14:58:37;-0.20;88.90
11229;DHT22;5671;47.936;8.716;2023-01-24T15:01:27;-0.30;88.80
11229;DHT22;5671;47.936;8.716;2023-01-24T15:03:54;-0.30;88.90
11229;DHT22;5671;47.936;8.716;2023-01-24T15:06:22;-0.30;89.10
11229;DHT22;5671;47.936;8.716;2023-01-24T15:08:55;-0.30;89.10
11229;DHT22;5671;47.936;8.716;2023-01-24T15:11:24;-0.30;89.10
11229;DHT22;5671;47.936;8.716;2023-01-24T15:13:56;-0.30;89.10
11229;DHT22;5671;47.936;8.716;2023-01-24T15:16:31;-0.30;89.10
11229;DHT22;5671;47.936;8.716;2023-01-24T15:19:03;-0.30;89.10
11229;DHT22;5671;47.936;8.716;2023-01-24T15:21:33;-0.30;89.30
11229;DHT22;5671;47.936;8.716;2023-01-24T15:24:03;-0.30;89.20
11229;DHT22;5671;47.936;8.716;2023-01-24T15:26:36;-0.30;89.30
11229;DHT22;5671;47.936;8.716;2023-01-24T15:29:37;-0.30;89.20
11229;DHT22;5671;47.936;8.716;2023-01-24T15:32:22;-0.30;89.10
11229;DHT22;5671;47.936;8.716;2023-01-24T15:35:27;-0.30;89.20
11229;DHT22;5671;47.936;8.716;2023-01-24T15:38:11;-0.30;89.40
11229;DHT22;5671;47.936;8.716;2023-01-24T15:40:48;-0.40;89.50
11229;DHT22;5671;47.936;8.716;2023-01-24T15:43:19;-0.40;89.50
11229;DHT22;5671;47.936;8.716;2023-01-24T15:46:04;-0.30;89.50
11229;DHT22;5671;47.936;8.716;2023-01-24T15:48:59;-0.40;89.60
11229;DHT22;5671;47.936;8.716;2023-01-24T15:51:32;-0.40;89.50
11229;DHT22;5671;47.936;8.716;2023-01-24T15:53:59;-0.40;89.60
11229;DHT22;5671;47.936;8.716;2023-01-24T15:56:28;-0.40;89.50
11229;DHT22;5671;47.936;8.716;2023-01-24T15:58:55;-0.40;89.50
11229;DHT22;5671;47.936;8.716;2023-01-24T16:01:27;-0.40;89.70
11229;DHT22;5671;47.936;8.716;2023-01-24T16:03:56;-0.40;89.70
11229;DHT22;5671;47.936;8.716;2023-01-24T16:06:25;-0.40;89.70
11229;DHT22;5671;47.936;8.716;2023-01-24T16:08:52;-0.40;89.60
11229;DHT22;5671;47.936;8.716;2023-01-24T16:11:19;-0.40;89.70
11229;DHT22;5671;47.936;8.716;2023-01-24T16:13:48;-0.40;89.80
11229;DHT22;5671;47.936;8.716;2023-01-24T16:16:21;-0.40;89.80
11229;DHT22;5671;47.936;8.716;2023-01-24T16:18:48;-0.40;89.80